createdAt,value
2018-02-05T00:00:24.939Z,19.35
2018-02-05T00:02:52.420Z,23.15
2018-02-05T00:05:18.986Z,21.92
2018-02-05T00:07:47.666Z,24.40
2018-02-05T00:10:14.205Z,25.20
2018-02-05T00:12:42.248Z,17.37
2018-02-05T00:15:08.934Z,17.35
2018-02-05T00:17:35.451Z,15.45
2018-02-05T00:20:01.983Z,16.00
2018-02-05T00:22:29.725Z,16.37
2018-02-05T00:24:56.275Z,21.00
2018-02-05T00:27:22.777Z,18.37
2018-02-05T00:29:49.375Z,20.85
2018-02-05T00:32:15.903Z,25.98
2018-02-05T00:34:42.481Z,21.58
2018-02-05T00:37:09.819Z,18.87
2018-02-05T00:39:36.341Z,19.70
2018-02-05T00:42:02.961Z,25.50
2018-02-05T00:44:29.540Z,26.75
2018-02-05T00:46:56.809Z,25.42
2018-02-05T00:49:23.375Z,22.52
2018-02-05T00:51:49.871Z,19.12
2018-02-05T00:54:17.190Z,20.23
2018-02-05T00:56:43.706Z,19.25
2018-02-05T00:59:12.322Z,23.55
2018-02-05T01:01:38.864Z,28.42
2018-02-05T01:04:05.384Z,19.40
2018-02-05T01:06:33.410Z,18.92
2018-02-05T01:08:59.922Z,15.35
2018-02-05T01:11:39.627Z,11.12
2018-02-05T01:14:06.161Z,17.00
2018-02-05T01:16:39.817Z,11.07
2018-02-05T01:19:06.322Z,18.23
2018-02-05T01:21:32.861Z,24.25
2018-02-05T01:23:59.416Z,16.85
2018-02-05T01:26:25.958Z,24.08
2018-02-05T01:28:53.221Z,17.30
2018-02-05T01:31:19.742Z,23.05
2018-02-05T01:33:50.920Z,24.00
2018-02-05T01:36:17.485Z,31.50
2018-02-05T01:38:43.981Z,37.10
2018-02-05T01:41:11.250Z,28.25
2018-02-05T01:43:37.753Z,37.20
2018-02-05T01:46:04.289Z,23.83
2018-02-05T01:48:31.575Z,15.32
2018-02-05T01:50:58.092Z,23.62
2018-02-05T01:53:24.671Z,27.45
2018-02-05T01:55:51.191Z,19.83
2018-02-05T01:58:23.706Z,27.25
2018-02-05T02:00:50.945Z,23.15
2018-02-05T02:03:25.402Z,22.42
2018-02-05T02:05:52.701Z,18.60
2018-02-05T02:08:19.375Z,21.23
2018-02-05T02:10:49.938Z,18.00
2018-02-05T02:13:17.197Z,20.37
2018-02-05T02:15:43.746Z,24.27
2018-02-05T02:18:10.440Z,18.62
2018-02-05T02:20:36.953Z,22.08
2018-02-05T02:23:03.523Z,26.95
2018-02-05T02:25:30.808Z,26.98
2018-02-05T02:27:57.445Z,23.67
2018-02-05T02:30:24.367Z,22.87
2018-02-05T02:32:51.292Z,25.98
2018-02-05T02:35:18.245Z,24.75
2018-02-05T02:37:45.192Z,25.77
2018-02-05T02:40:19.086Z,28.42
2018-02-05T02:42:45.925Z,23.00
2018-02-05T02:45:12.782Z,21.37
2018-02-05T02:47:39.742Z,27.17
2018-02-05T02:50:12.724Z,29.00
2018-02-05T02:52:39.668Z,22.50
2018-02-05T02:55:12.639Z,22.27
2018-02-05T02:57:39.600Z,23.05
2018-02-05T03:00:12.491Z,26.33
2018-02-05T03:02:39.535Z,20.73
2018-02-05T03:05:06.480Z,25.05
2018-02-05T03:07:33.370Z,21.33
2018-02-05T03:10:00.974Z,20.50
2018-02-05T03:12:27.832Z,24.12
2018-02-05T03:14:54.671Z,19.33
2018-02-05T03:17:34.932Z,20.62
2018-02-05T03:20:01.781Z,22.05
2018-02-05T03:22:28.618Z,23.15
2018-02-05T03:24:55.454Z,22.42
2018-02-05T03:27:22.206Z,20.92
2018-02-05T03:29:49.152Z,25.67
2018-02-05T03:32:15.997Z,21.73
2018-02-05T03:34:50.005Z,21.85
2018-02-05T03:37:16.952Z,24.87
2018-02-05T03:39:54.837Z,23.17
2018-02-05T03:42:21.685Z,24.08
2018-02-05T03:44:48.645Z,18.85
2018-02-05T03:47:15.494Z,25.23
2018-02-05T03:49:42.332Z,23.98
2018-02-05T03:52:09.161Z,18.45
2018-02-05T03:54:49.945Z,24.75
2018-02-05T03:57:16.890Z,25.67
2018-02-05T03:59:51.826Z,26.48
2018-02-05T04:02:18.658Z,19.30
2018-02-05T04:04:45.614Z,22.27
2018-02-05T04:07:15.633Z,19.65
2018-02-05T04:09:42.468Z,25.80
2018-02-05T04:12:09.320Z,26.10
2018-02-05T04:14:36.146Z,21.70
2018-02-05T04:17:02.934Z,20.62
2018-02-05T04:19:31.890Z,23.00
2018-02-05T04:21:58.742Z,23.12
2018-02-05T04:24:25.588Z,23.80
2018-02-05T04:26:52.418Z,20.12
2018-02-05T04:29:19.381Z,26.87
2018-02-05T04:31:46.326Z,23.45
2018-02-05T04:34:13.164Z,24.25
2018-02-05T04:36:40.116Z,20.58
2018-02-05T04:39:06.925Z,23.87
2018-02-05T04:41:34.516Z,22.40
2018-02-05T04:44:01.461Z,20.73
2018-02-05T04:46:32.196Z,24.60
2018-02-05T04:48:59.126Z,17.65
2018-02-05T04:51:25.982Z,24.12
2018-02-05T04:53:52.827Z,22.40
2018-02-05T04:56:19.678Z,24.92
2018-02-05T04:58:55.827Z,23.15
2018-02-05T05:01:22.783Z,22.67
2018-02-05T05:03:49.610Z,27.50
2018-02-05T05:06:17.185Z,21.45
2018-02-05T05:08:44.014Z,13.85
2018-02-05T05:11:10.865Z,22.27
2018-02-05T05:13:37.818Z,26.83
2018-02-05T05:16:04.764Z,22.85
2018-02-05T05:18:36.630Z,24.27
2018-02-05T05:21:03.980Z,22.27
2018-02-05T05:23:36.970Z,19.27
2018-02-05T05:26:04.020Z,18.90
2018-02-05T05:28:36.970Z,28.10
2018-02-05T05:31:10.811Z,22.13
2018-02-05T05:33:46.871Z,17.52
2018-02-05T05:36:22.911Z,18.85
2018-02-05T05:38:55.612Z,17.80
2018-02-05T05:41:22.455Z,16.30
2018-02-05T05:43:57.598Z,19.30
2018-02-05T05:46:32.731Z,19.35
2018-02-05T05:48:59.677Z,17.05
2018-02-05T05:51:26.714Z,22.08
2018-02-05T05:53:53.674Z,19.20
2018-02-05T05:56:20.721Z,17.00
2018-02-05T05:58:47.461Z,19.15
2018-02-05T06:01:14.303Z,23.85
2018-02-05T06:03:41.149Z,19.75
2018-02-05T06:06:08.094Z,17.00
2018-02-05T06:08:34.930Z,26.35
2018-02-05T06:11:08.945Z,17.05
2018-02-05T06:13:35.797Z,23.05
2018-02-05T06:16:16.873Z,21.08
2018-02-05T06:18:43.849Z,22.42
2018-02-05T06:21:11.485Z,16.55
2018-02-05T06:23:38.727Z,19.55
2018-02-05T06:26:05.985Z,19.77
2018-02-05T06:28:32.927Z,19.73
2018-02-05T06:30:59.776Z,23.27
2018-02-05T06:33:26.611Z,26.00
2018-02-05T06:35:54.017Z,20.85
2018-02-05T06:38:30.036Z,22.55
2018-02-05T06:40:56.879Z,21.10
2018-02-05T06:43:23.824Z,24.35
2018-02-05T06:45:50.662Z,25.58
2018-02-05T06:48:17.511Z,19.35
2018-02-05T06:50:56.645Z,22.23
2018-02-05T06:53:34.557Z,22.90
2018-02-05T06:56:25.455Z,27.33
2018-02-05T06:58:52.242Z,22.92
2018-02-05T07:01:19.039Z,24.70
2018-02-05T07:03:45.811Z,26.05
2018-02-05T07:06:12.617Z,28.73
2018-02-05T07:08:47.455Z,32.67
2018-02-05T07:11:14.503Z,22.77
2018-02-05T07:13:41.446Z,17.42
2018-02-05T07:16:08.396Z,19.92
2018-02-05T07:18:39.335Z,14.57
2018-02-05T07:21:06.384Z,16.87
2018-02-05T07:23:33.331Z,16.92
2018-02-05T07:26:00.173Z,21.27
2018-02-05T07:28:27.121Z,24.27
2018-02-05T07:30:54.076Z,22.13
2018-02-05T07:33:21.118Z,19.95
2018-02-05T07:35:48.055Z,27.92
2018-02-05T07:38:20.737Z,28.60
2018-02-05T07:40:47.790Z,22.75
2018-02-05T07:43:14.634Z,22.13
2018-02-05T07:45:41.466Z,24.02
2018-02-05T07:48:08.316Z,23.90
2018-02-05T07:50:35.163Z,26.70
2018-02-05T07:53:02.003Z,21.45
2018-02-05T07:55:28.949Z,25.05
2018-02-05T07:57:55.899Z,25.55
2018-02-05T08:00:22.848Z,24.15
2018-02-05T08:02:53.597Z,23.87
2018-02-05T08:05:20.522Z,24.55
2018-02-05T08:07:53.356Z,17.73
2018-02-05T08:10:21.177Z,24.52
2018-02-05T08:12:48.020Z,16.85
2018-02-05T08:15:14.852Z,22.48
2018-02-05T08:17:41.714Z,23.83
2018-02-05T08:20:12.855Z,23.87
2018-02-05T08:22:46.044Z,19.27
2018-02-05T08:25:12.888Z,24.05
2018-02-05T08:27:39.935Z,18.17
2018-02-05T08:30:06.803Z,23.20
2018-02-05T08:32:37.618Z,18.77
2018-02-05T08:35:08.558Z,18.48
2018-02-05T08:37:45.830Z,19.02
2018-02-05T08:40:13.714Z,18.55
2018-02-05T08:42:41.375Z,18.58
2018-02-05T08:45:13.854Z,19.15
2018-02-05T08:47:41.822Z,18.52
2018-02-05T08:50:14.709Z,17.08
2018-02-05T08:52:47.082Z,19.58
2018-02-05T08:55:15.460Z,16.62
2018-02-05T08:57:42.507Z,15.20
2018-02-05T09:00:09.556Z,20.15
2018-02-05T09:02:36.503Z,16.27
2018-02-05T09:05:03.452Z,18.65
2018-02-05T09:07:30.294Z,17.05
2018-02-05T09:09:57.239Z,17.48
2018-02-05T09:12:24.069Z,17.20
2018-02-05T09:14:51.132Z,20.62
2018-02-05T09:17:18.063Z,16.40
2018-02-05T09:19:45.024Z,17.87
2018-02-05T09:22:12.082Z,13.77
2018-02-05T09:24:39.035Z,17.50
2018-02-05T09:27:05.890Z,12.95
2018-02-05T09:29:32.810Z,17.58
2018-02-05T09:31:59.651Z,18.95
2018-02-05T09:34:26.699Z,14.32
2018-02-05T09:36:53.542Z,13.30
2018-02-05T09:39:20.478Z,16.58
2018-02-05T09:41:47.314Z,14.60
2018-02-05T09:44:14.886Z,20.97
2018-02-05T09:46:41.741Z,14.20
2018-02-05T09:49:08.575Z,13.57
2018-02-05T09:51:35.411Z,18.37
2018-02-05T09:54:02.268Z,11.97
2018-02-05T09:56:29.325Z,14.13
2018-02-05T09:58:56.270Z,14.52
2018-02-05T10:01:23.091Z,12.43
2018-02-05T10:03:50.052Z,14.20
2018-02-05T10:06:16.897Z,14.70
2018-02-05T10:08:43.733Z,16.90
2018-02-05T10:11:10.673Z,13.43
2018-02-05T10:13:37.454Z,14.80
2018-02-05T10:16:04.280Z,16.75
2018-02-05T10:18:31.421Z,17.65
2018-02-05T10:21:02.038Z,19.52
2018-02-05T10:23:28.886Z,19.10
2018-02-05T10:25:55.844Z,16.77
2018-02-05T10:28:22.689Z,17.40
2018-02-05T10:30:49.634Z,14.35
2018-02-05T10:33:16.584Z,12.40
2018-02-05T10:35:43.522Z,13.17
2018-02-05T10:38:10.471Z,12.73
2018-02-05T10:40:37.324Z,15.23
2018-02-05T10:43:04.378Z,10.67
2018-02-05T10:45:31.431Z,12.77
2018-02-05T10:47:58.360Z,12.43
2018-02-05T10:50:25.304Z,12.53
2018-02-05T10:52:52.154Z,12.00
2018-02-05T10:55:18.949Z,14.27
2018-02-05T10:57:47.681Z,12.03
2018-02-05T11:00:14.523Z,11.60
2018-02-05T11:02:41.308Z,14.37
2018-02-05T11:05:09.132Z,17.33
2018-02-05T11:07:35.977Z,10.00
2018-02-05T11:10:03.025Z,14.50
2018-02-05T11:12:29.850Z,12.33
2018-02-05T11:14:57.532Z,11.20
2018-02-05T11:17:24.368Z,11.13
2018-02-05T11:19:51.206Z,11.33
2018-02-05T11:22:18.054Z,11.00
2018-02-05T11:24:45.011Z,12.87
2018-02-05T11:27:12.061Z,13.73
2018-02-05T11:29:39.008Z,11.77
2018-02-05T11:32:05.945Z,11.83
2018-02-05T11:34:33.002Z,10.63
2018-02-05T11:36:59.944Z,10.40
2018-02-05T11:39:30.838Z,10.67
2018-02-05T11:41:59.162Z,10.13
2018-02-05T11:44:25.983Z,12.80
2018-02-05T11:46:53.552Z,10.60
2018-02-05T11:49:30.337Z,8.87
2018-02-05T11:52:12.340Z,7.30
2018-02-05T11:54:43.075Z,11.40
2018-02-05T11:57:09.908Z,12.30
2018-02-05T11:59:37.473Z,10.43
2018-02-05T12:02:04.324Z,9.93
2018-02-05T12:04:31.372Z,10.67
2018-02-05T12:06:59.245Z,10.17
2018-02-05T12:09:26.496Z,12.97
2018-02-05T12:12:06.531Z,11.50
2018-02-05T12:14:46.702Z,11.20
2018-02-05T12:17:13.752Z,14.77
2018-02-05T12:19:40.673Z,10.77
2018-02-05T12:22:07.644Z,12.63
2018-02-05T12:24:34.489Z,12.83
2018-02-05T12:27:01.320Z,10.67
2018-02-05T12:29:28.169Z,9.13
2018-02-05T12:31:55.121Z,9.23
2018-02-05T12:34:22.068Z,9.97
2018-02-05T12:36:49.013Z,9.47
2018-02-05T12:39:15.864Z,10.43
2018-02-05T12:41:42.709Z,12.97
2018-02-05T12:44:09.533Z,12.03
2018-02-05T12:46:37.105Z,9.63
2018-02-05T12:49:03.905Z,8.70
2018-02-05T12:51:30.781Z,10.23
2018-02-05T12:53:58.438Z,9.50
2018-02-05T12:56:25.410Z,9.63
2018-02-05T12:58:53.477Z,7.47
2018-02-05T13:01:25.133Z,8.33
2018-02-05T13:03:51.972Z,7.93
2018-02-05T13:06:25.669Z,12.17
2018-02-05T13:08:52.510Z,11.20
2018-02-05T13:11:26.537Z,8.90
2018-02-05T13:13:53.373Z,10.07
2018-02-05T13:16:20.221Z,11.30
2018-02-05T13:18:47.064Z,11.53
2018-02-05T13:21:13.886Z,9.53
2018-02-05T13:23:41.473Z,10.60
2018-02-05T13:26:08.312Z,10.43
2018-02-05T13:28:35.365Z,11.57
2018-02-05T13:31:02.309Z,9.23
2018-02-05T13:33:38.567Z,11.80
2018-02-05T13:36:05.516Z,9.00
2018-02-05T13:38:32.290Z,9.83
2018-02-05T13:40:59.926Z,7.33
2018-02-05T13:43:26.769Z,10.17
2018-02-05T13:45:53.612Z,10.43
2018-02-05T13:48:20.459Z,9.83
2018-02-05T13:50:47.410Z,9.27
2018-02-05T13:53:14.229Z,8.57
2018-02-05T13:55:41.051Z,12.03
2018-02-05T13:58:08.651Z,8.73
2018-02-05T14:00:35.597Z,7.70
2018-02-05T14:03:02.448Z,8.37
2018-02-05T14:05:29.385Z,10.10
2018-02-05T14:07:56.230Z,8.60
2018-02-05T14:10:23.068Z,8.60
2018-02-05T14:12:50.022Z,8.23
2018-02-05T14:15:16.855Z,10.07
2018-02-05T14:17:43.815Z,9.87
2018-02-05T14:20:10.859Z,9.43
2018-02-05T14:22:37.706Z,11.63
2018-02-05T14:25:04.651Z,9.03
2018-02-05T14:27:31.597Z,7.53
2018-02-05T14:29:58.541Z,7.57
2018-02-05T14:32:25.490Z,7.60
2018-02-05T14:34:52.435Z,7.20
2018-02-05T14:37:19.277Z,8.20
2018-02-05T14:39:46.105Z,8.43
2018-02-05T14:42:13.769Z,11.87
2018-02-05T14:44:40.539Z,10.67
2018-02-05T14:47:07.364Z,11.00
2018-02-05T14:49:34.315Z,11.37
2018-02-05T14:52:01.370Z,14.40
2018-02-05T14:54:28.206Z,9.10
2018-02-05T14:56:55.259Z,13.80
2018-02-05T14:59:22.305Z,10.17
2018-02-05T15:01:49.149Z,8.50
2018-02-05T15:04:16.094Z,9.20
2018-02-05T15:06:43.144Z,9.70
2018-02-05T15:09:10.090Z,10.17
2018-02-05T15:11:37.045Z,8.97
2018-02-05T15:14:03.887Z,8.90
2018-02-05T15:16:30.826Z,13.77
2018-02-05T15:18:57.978Z,8.47
2018-02-05T15:21:24.917Z,7.30
2018-02-05T15:23:51.872Z,9.70
2018-02-05T15:26:18.672Z,9.55
2018-02-05T15:28:45.551Z,12.17
2018-02-05T15:31:12.294Z,13.80
2018-02-05T15:33:39.230Z,10.70
2018-02-05T15:36:06.184Z,14.03
2018-02-05T15:38:33.046Z,14.50
2018-02-05T15:40:59.866Z,11.73
2018-02-05T15:43:26.617Z,8.77
2018-02-05T15:45:53.464Z,12.50
2018-02-05T15:48:20.409Z,11.27
2018-02-05T15:50:47.358Z,9.52
2018-02-05T15:53:14.308Z,10.00
2018-02-05T15:55:41.137Z,9.53
2018-02-05T15:58:08.092Z,10.23
2018-02-05T16:00:34.917Z,9.40
2018-02-05T16:03:05.670Z,9.02
2018-02-05T16:05:32.712Z,4.67
2018-02-05T16:07:59.667Z,8.00
2018-02-05T16:10:26.615Z,7.05
2018-02-05T16:12:53.665Z,6.55
2018-02-05T16:15:20.497Z,8.38
2018-02-05T16:17:47.437Z,10.00
2018-02-05T16:20:14.206Z,10.07
2018-02-05T16:22:45.130Z,11.02
2018-02-05T16:25:11.957Z,12.73
2018-02-05T16:27:39.530Z,10.02
2018-02-05T16:30:13.438Z,8.52
2018-02-05T16:32:53.397Z,10.10
2018-02-05T16:35:20.444Z,11.12
2018-02-05T16:37:47.380Z,11.55
2018-02-05T16:40:14.242Z,11.77
2018-02-05T16:42:42.205Z,11.98
2018-02-05T16:45:09.254Z,11.73
2018-02-05T16:47:43.060Z,11.48
2018-02-05T16:50:13.790Z,14.23
2018-02-05T16:52:40.641Z,14.52
2018-02-05T16:55:10.554Z,13.90
2018-02-05T16:57:38.832Z,16.45
2018-02-05T17:00:05.776Z,14.55
2018-02-05T17:02:32.605Z,13.43
2018-02-05T17:04:59.450Z,11.77
2018-02-05T17:07:27.029Z,12.68
2018-02-05T17:09:54.078Z,11.05
2018-02-05T17:12:21.020Z,12.68
2018-02-05T17:14:48.076Z,10.63
2018-02-05T17:17:24.013Z,16.30
2018-02-05T17:19:56.093Z,12.93
2018-02-05T17:22:35.107Z,11.27
2018-02-05T17:25:17.538Z,10.27
2018-02-05T17:27:44.423Z,14.80
2018-02-05T17:30:12.044Z,17.15
2018-02-05T17:32:42.874Z,14.73
2018-02-05T17:35:09.714Z,12.98
2018-02-05T17:37:36.658Z,12.13
2018-02-05T17:40:03.512Z,11.88
2018-02-05T17:42:30.454Z,11.45
2018-02-05T17:44:57.400Z,11.48
2018-02-05T17:47:24.346Z,10.95
2018-02-05T17:49:51.184Z,14.43
2018-02-05T17:52:22.846Z,13.45
2018-02-05T17:54:49.696Z,11.98
2018-02-05T17:57:16.440Z,12.82
2018-02-05T17:59:52.696Z,12.15
2018-02-05T18:02:19.535Z,20.83
2018-02-05T18:04:46.286Z,16.20
2018-02-05T18:07:13.114Z,13.13
2018-02-05T18:09:46.215Z,22.80
2018-02-05T18:12:13.061Z,14.95
2018-02-05T18:14:41.933Z,14.02
2018-02-05T18:17:08.896Z,14.50
2018-02-05T18:19:35.828Z,13.18
2018-02-05T18:22:02.788Z,17.90
2018-02-05T18:24:29.939Z,19.87
2018-02-05T18:26:56.775Z,22.17
2018-02-05T18:29:23.629Z,15.68
2018-02-05T18:31:50.581Z,13.57
2018-02-05T18:34:18.532Z,12.90
2018-02-05T18:36:45.597Z,12.35
2018-02-05T18:39:12.437Z,11.93
2018-02-05T18:41:39.273Z,16.85
2018-02-05T18:44:06.949Z,13.40
2018-02-05T18:46:33.889Z,11.57
2018-02-05T18:49:00.720Z,12.30
2018-02-05T18:51:28.600Z,14.90
2018-02-05T18:53:55.648Z,14.38
2018-02-05T18:56:34.682Z,10.88
2018-02-05T18:59:01.512Z,16.42
2018-02-05T19:01:28.356Z,17.08
2018-02-05T19:03:59.305Z,11.82
2018-02-05T19:06:27.070Z,12.35
2018-02-05T19:09:07.228Z,14.30
2018-02-05T19:11:34.171Z,16.17
2018-02-05T19:14:10.537Z,15.27
2018-02-05T19:16:37.387Z,13.35
2018-02-05T19:19:04.343Z,14.68
2018-02-05T19:21:46.531Z,13.10
2018-02-05T19:24:20.545Z,18.20
2018-02-05T19:26:54.443Z,14.70
2018-02-05T19:29:29.388Z,12.55
2018-02-05T19:31:58.278Z,14.70
2018-02-05T19:34:38.227Z,14.35
2018-02-05T19:37:05.166Z,13.80
2018-02-05T19:39:32.028Z,14.27
2018-02-05T19:41:58.806Z,12.63
2018-02-05T19:44:26.423Z,15.65
2018-02-05T19:49:52.360Z,10.88
2018-02-05T19:52:19.080Z,13.98
2018-02-05T19:54:45.816Z,13.55
2018-02-05T19:57:12.454Z,14.65
2018-02-05T19:59:39.128Z,11.93
2018-02-05T20:02:07.743Z,19.12
2018-02-05T20:04:34.454Z,15.25
2018-02-05T20:07:08.267Z,12.18
2018-02-05T20:09:34.997Z,13.38
2018-02-05T20:12:01.715Z,18.30
2018-02-05T20:14:29.112Z,14.48
2018-02-05T20:16:58.857Z,15.07
2018-02-05T20:19:25.472Z,15.07
2018-02-05T20:21:52.194Z,16.33
2018-02-05T20:24:18.831Z,14.43
2018-02-05T20:26:45.543Z,17.27
2018-02-05T20:29:14.181Z,14.52
2018-02-05T20:31:40.845Z,15.43
2018-02-05T20:34:08.267Z,14.45
2018-02-05T20:36:34.971Z,14.65
2018-02-05T20:39:01.607Z,14.25
2018-02-05T20:41:29.047Z,13.10
2018-02-05T20:43:55.687Z,14.80
2018-02-05T20:46:22.461Z,12.52
2018-02-05T20:48:59.265Z,17.02
2018-02-05T20:51:38.999Z,17.48
2018-02-05T20:54:09.827Z,14.13
2018-02-05T20:56:36.504Z,16.67
2018-02-05T20:59:03.274Z,15.55
2018-02-05T21:01:30.122Z,16.02
2018-02-05T21:04:01.561Z,16.40
2018-02-05T21:06:28.340Z,15.30
2018-02-05T21:09:08.958Z,14.93
2018-02-05T21:11:35.735Z,16.23
2018-02-05T21:14:02.439Z,15.05
2018-02-05T21:16:29.068Z,20.55
2018-02-05T21:18:55.740Z,19.45
2018-02-05T21:21:22.482Z,15.75
2018-02-05T21:23:49.154Z,14.77
2018-02-05T21:26:28.983Z,18.90
2018-02-05T21:28:56.455Z,12.93
2018-02-05T21:31:30.124Z,15.73
2018-02-05T21:34:06.736Z,14.68
2018-02-05T21:36:41.234Z,14.07
2018-02-05T21:39:10.015Z,16.27
2018-02-05T21:41:37.467Z,15.65
2018-02-05T21:44:04.172Z,14.60
2018-02-05T21:46:30.877Z,15.80
2018-02-05T21:48:57.515Z,17.70
2018-02-05T21:51:24.191Z,15.07
2018-02-05T21:53:50.816Z,16.42
2018-02-05T21:56:17.536Z,15.00
2018-02-05T21:58:44.950Z,14.45
2018-02-05T22:01:11.621Z,14.30
2018-02-05T22:03:39.071Z,15.05
2018-02-05T22:06:05.769Z,13.38
2018-02-05T22:08:32.492Z,15.40
2018-02-05T22:10:59.171Z,18.35
2018-02-05T22:13:25.857Z,17.12
2018-02-05T22:15:52.580Z,13.25
2018-02-05T22:18:20.016Z,14.73
2018-02-05T22:20:46.635Z,15.48
2018-02-05T22:23:13.320Z,14.98
2018-02-05T22:25:39.992Z,17.08
2018-02-05T22:28:06.661Z,17.75
2018-02-05T22:30:33.275Z,17.95
2018-02-05T22:33:00.060Z,16.42
2018-02-05T22:35:26.775Z,16.27
2018-02-05T22:37:53.521Z,15.27
2018-02-05T22:40:20.195Z,17.62
2018-02-05T22:42:47.603Z,15.88
2018-02-05T22:45:14.391Z,13.13
2018-02-05T22:47:41.058Z,16.05
2018-02-05T22:50:07.773Z,14.30
2018-02-05T22:52:35.250Z,18.05
2018-02-05T22:55:02.694Z,16.55
2018-02-05T22:57:29.450Z,16.40
2018-02-05T22:59:56.847Z,19.60
2018-02-05T23:02:23.535Z,20.55
2018-02-05T23:04:50.953Z,17.05
2018-02-05T23:07:17.664Z,19.08
2018-02-05T23:09:44.387Z,15.48
2018-02-05T23:12:11.108Z,31.37
2018-02-05T23:14:37.879Z,32.15
2018-02-05T23:17:04.587Z,29.15
2018-02-05T23:19:31.296Z,40.50
2018-02-05T23:21:58.008Z,30.50
2018-02-05T23:24:24.693Z,40.58
2018-02-05T23:26:51.447Z,24.80
2018-02-05T23:29:18.211Z,35.05
2018-02-05T23:31:45.653Z,29.75
2018-02-05T23:34:13.213Z,23.08
2018-02-05T23:36:40.622Z,18.25
2018-02-05T23:39:07.325Z,15.40
2018-02-05T23:41:34.890Z,16.87
2018-02-05T23:44:02.283Z,15.75
2018-02-05T23:46:28.907Z,15.95
2018-02-05T23:48:55.585Z,17.62
2018-02-05T23:51:22.278Z,17.92
2018-02-05T23:53:48.987Z,16.67
2018-02-05T23:56:15.674Z,13.70
2018-02-05T23:58:42.396Z,14.87
